createdAt,value
2019-01-16T00:00:09.655Z,3.90
2019-01-16T00:10:52.207Z,3.90
2019-01-16T00:21:19.155Z,3.90
2019-01-16T00:31:38.172Z,3.90
2019-01-16T00:42:09.389Z,4.00
2019-01-16T00:52:33.671Z,3.90
2019-01-16T01:03:10.125Z,3.90
2019-01-16T01:13:24.027Z,3.70
2019-01-16T01:23:57.315Z,3.70
2019-01-16T01:34:25.067Z,3.80
2019-01-16T01:44:46.214Z,4.00
2019-01-16T01:55:10.561Z,4.00
2019-01-16T02:05:33.265Z,4.10
2019-01-16T02:15:49.250Z,4.10
2019-01-16T02:26:15.055Z,4.10
2019-01-16T02:36:34.823Z,3.90
2019-01-16T02:46:50.622Z,3.90
2019-01-16T02:57:04.669Z,3.80
2019-01-16T03:07:28.917Z,3.50
2019-01-16T03:17:56.353Z,3.40
2019-01-16T03:28:23.586Z,3.20
2019-01-16T03:38:41.733Z,3.00
2019-01-16T03:49:20.940Z,2.90
2019-01-16T03:59:47.650Z,2.90
2019-01-16T04:10:16.464Z,2.90
2019-01-16T04:20:41.182Z,2.90
2019-01-16T04:31:03.670Z,2.80
2019-01-16T04:41:30.728Z,2.70
2019-01-16T04:51:58.177Z,2.70
2019-01-16T05:02:25.310Z,2.70
2019-01-16T05:12:55.680Z,2.70
2019-01-16T05:23:23.361Z,2.80
2019-01-16T05:33:50.210Z,3.00
2019-01-16T05:44:14.480Z,3.10
2019-01-16T05:54:41.473Z,3.10
2019-01-16T06:05:02.619Z,3.20
2019-01-16T06:15:24.137Z,3.30
2019-01-16T06:25:51.425Z,3.40
2019-01-16T06:36:14.377Z,3.70
2019-01-16T06:46:37.148Z,3.90
2019-01-16T06:57:01.480Z,4.10
2019-01-16T07:07:31.856Z,4.20
2019-01-16T07:17:54.766Z,4.40
2019-01-16T07:28:17.560Z,4.40
2019-01-16T07:38:53.912Z,4.50
2019-01-16T07:49:21.038Z,4.70
2019-01-16T07:59:43.721Z,4.80
2019-01-16T08:10:07.957Z,4.90
2019-01-16T08:20:33.260Z,5.10
2019-01-16T08:30:57.710Z,5.20
2019-01-16T08:41:21.986Z,5.40
2019-01-16T08:51:55.383Z,5.60
2019-01-16T09:02:17.349Z,5.60
2019-01-16T09:12:40.100Z,5.60
2019-01-16T09:40:08.105Z,5.90
2019-01-16T09:50:32.041Z,6.30
2019-01-16T10:00:57.677Z,6.30
2019-01-16T10:11:33.783Z,6.30
2019-01-16T10:22:10.241Z,6.10
2019-01-16T10:32:37.075Z,6.30
2019-01-16T10:43:07.371Z,6.40
2019-01-16T10:53:37.371Z,6.40
2019-01-16T11:03:52.371Z,6.30
2019-01-16T11:14:16.639Z,6.40
2019-01-16T11:24:43.946Z,6.30
2019-01-16T11:35:21.437Z,6.30
2019-01-16T11:45:37.397Z,6.30
2019-01-16T11:56:01.744Z,6.50
2019-01-16T12:06:24.521Z,6.50
2019-01-16T12:16:41.724Z,6.60
2019-01-16T12:27:04.630Z,6.50
2019-01-16T12:37:28.941Z,6.50
2019-01-16T12:47:51.807Z,6.30
2019-01-16T12:58:18.931Z,6.40
2019-01-16T13:08:52.356Z,6.50
2019-01-16T13:19:28.382Z,6.50
2019-01-16T13:30:04.844Z,6.60
2019-01-16T13:40:22.347Z,6.60
2019-01-16T13:50:45.258Z,6.60
2019-01-16T14:01:18.349Z,6.30
2019-01-16T14:11:43.764Z,6.30
2019-01-16T14:22:22.698Z,6.20
2019-01-16T14:32:41.674Z,6.20
2019-01-16T14:43:04.681Z,6.20
2019-01-16T14:53:35.420Z,6.20
2019-01-16T15:03:58.435Z,6.30
2019-01-16T15:14:24.454Z,6.40
2019-01-16T15:24:40.406Z,6.50
2019-01-16T15:35:22.675Z,6.50
2019-01-16T15:45:47.112Z,6.50
2019-01-16T15:56:09.961Z,6.50
2019-01-16T16:06:40.288Z,6.60
2019-01-16T16:17:03.250Z,6.70
2019-01-16T16:27:30.257Z,6.70
2019-01-16T16:38:07.879Z,6.70
2019-01-16T16:48:30.729Z,6.70
2019-01-16T16:58:54.505Z,6.80
2019-01-16T17:09:28.173Z,6.80
2019-01-16T17:19:51.253Z,6.80
2019-01-16T17:30:18.424Z,6.90
2019-01-16T17:41:00.811Z,6.80
2019-01-16T17:51:31.213Z,6.80
2019-01-16T18:01:46.566Z,6.80
2019-01-16T18:12:07.639Z,6.70
2019-01-16T18:22:30.942Z,6.60
2019-01-16T18:33:01.215Z,6.50
2019-01-16T18:43:25.196Z,6.50
2019-01-16T18:53:55.258Z,6.40
2019-01-16T19:04:17.584Z,6.50
2019-01-16T19:14:41.308Z,6.50
2019-01-16T19:25:06.178Z,6.60
2019-01-16T19:45:42.671Z,7.20
2019-01-16T19:56:08.289Z,7.00
2019-01-16T20:06:30.908Z,6.70
2019-01-16T20:16:54.570Z,6.60
2019-01-16T20:27:36.785Z,6.60
2019-01-16T20:38:18.851Z,6.50
2019-01-16T20:48:52.068Z,6.40
2019-01-16T20:59:19.575Z,6.30
2019-01-16T21:09:46.760Z,6.30
2019-01-16T21:20:09.802Z,6.30
2019-01-16T21:30:49.411Z,6.30
2019-01-16T21:41:19.490Z,6.20
2019-01-16T21:51:43.647Z,6.20
2019-01-16T22:02:11.456Z,6.20
2019-01-16T22:12:34.215Z,6.20
2019-01-16T22:22:58.530Z,6.10
2019-01-16T22:33:13.875Z,6.10
2019-01-16T22:43:37.141Z,6.10
2019-01-16T22:54:07.280Z,6.10
2019-01-16T23:04:34.109Z,6.00
2019-01-16T23:14:56.564Z,6.00
2019-01-16T23:25:35.605Z,5.90
2019-01-16T23:36:02.926Z,5.80
2019-01-16T23:46:24.722Z,5.80
2019-01-16T23:57:06.971Z,5.70
